Airfield :
LOGIN :

Register | Disclaimer

   EN    FR    IT 

 










Legend :    VFR   Marginal VFR   IFR   Intensive IFR   Very Intensive IFR
Visi :
Ceiling :
>= 8 km
>= 3000ft
5 to 8 km
1000 to 3000 ft
1500m to 5 km
500 to 1000 ft
800 to 1500m
200 to 500 ft
< 800m
< 200 ft
Symbols :   Thunderstorms  Fog  Heavy snow  Heavy precipitations  Wind > 20 kt
SIGMETs :     Misc.  Thunderstorms  Icing  Turbulence  Mountain Waves  Volcanic Ashes






- Airport Elevation : 778 ft
- IATA code : BRQ


LKTB - Brno-Turany

CURRENT METAR :
  • 220930Z 22007KT 170V280 9999 BKN022 20/16 Q1014 NOSIG

EXPIRED METARs :
  • 220900Z 22007KT 190V250 9999 BKN019 20/15 Q1014 NOSIG
  • 220830Z 24007KT 210V270 9999 BKN016 19/16 Q1014 NOSIG
  • 220800Z 21009KT 9999 BKN008 18/16 Q1014 NOSIG
  • 220730Z 20006KT 9999 FEW028 17/16 Q1014 NOSIG
  • 220700Z 23006KT 190V270 9999 -RA SCT024 17/16 Q1014 NOSIG
  • 220630Z 22008KT 190V250 9999 RA FEW008 BKN024 17/16 Q1015 NOSIG
  • 220600Z 13004KT 090V220 9999 -SHRA VCTS FEW008CB 17/16 Q1014 NOSIG
  • 220530Z 21009KT 9999 -TSRA FEW019CB OVC034 18/16 Q1015 NOSIG

TAF AMD TAF LKTB
Valid from the 22 at 08:00 until the 23 at 06:00 UTC


220808Z 2208/2306 21009KT 9999 BKN008
BECMG 2208/2210 29006KT 9999 SCT030
BECMG 2216/2218 36010KT CAVOK



MET'MAP, your aeronautical weather chart ! - Copyright ORBIFLY December 2007 - Disclaimer

ORBIFLY MET'MAP TEAM :

Programming & Development : Alexandra Zaïnal
Original concept : Baudouin d'Aumeries
Technical & hardware support : Manuel Goepfert
Assistance : Marc-Olivier Méhu




SOURCES & CREDITS :

   NOAA